sensor_id;sensor_type;location;lat;lon;timestamp;P1;durP1;ratioP1;P2;durP2;ratioP2
2522;SDS011;1272;53.332;9.860;2023-04-23T00:00:50;7.50;;;6.80;;
2522;SDS011;1272;53.332;9.860;2023-04-23T00:03:17;6.63;;;6.13;;
2522;SDS011;1272;53.332;9.860;2023-04-23T00:05:43;7.20;;;6.60;;
2522;SDS011;1272;53.332;9.860;2023-04-23T00:08:10;7.17;;;6.57;;
2522;SDS011;1272;53.332;9.860;2023-04-23T00:10:36;6.93;;;6.43;;
2522;SDS011;1272;53.332;9.860;2023-04-23T00:13:02;6.90;;;6.40;;
2522;SDS011;1272;53.332;9.860;2023-04-23T00:15:28;7.67;;;6.97;;
2522;SDS011;1272;53.332;9.860;2023-04-23T00:17:54;7.87;;;7.17;;
2522;SDS011;1272;53.332;9.860;2023-04-23T00:20:22;6.90;;;6.40;;
2522;SDS011;1272;53.332;9.860;2023-04-23T00:22:48;6.87;;;6.23;;
2522;SDS011;1272;53.332;9.860;2023-04-23T00:25:14;8.70;;;8.00;;
2522;SDS011;1272;53.332;9.860;2023-04-23T00:27:41;8.70;;;7.90;;
2522;SDS011;1272;53.332;9.860;2023-04-23T00:30:06;8.00;;;7.33;;
2522;SDS011;1272;53.332;9.860;2023-04-23T00:32:33;8.03;;;7.23;;
2522;SDS011;1272;53.332;9.860;2023-04-23T00:34:58;8.67;;;7.77;;
2522;SDS011;1272;53.332;9.860;2023-04-23T00:37:25;8.50;;;7.70;;
2522;SDS011;1272;53.332;9.860;2023-04-23T00:39:51;8.23;;;7.53;;
2522;SDS011;1272;53.332;9.860;2023-04-23T00:42:16;8.70;;;7.90;;
2522;SDS011;1272;53.332;9.860;2023-04-23T00:44:42;8.17;;;7.40;;
2522;SDS011;1272;53.332;9.860;2023-04-23T00:47:08;9.03;;;7.83;;
2522;SDS011;1272;53.332;9.860;2023-04-23T00:49:36;8.30;;;7.50;;
2522;SDS011;1272;53.332;9.860;2023-04-23T00:52:03;10.00;;;7.73;;
2522;SDS011;1272;53.332;9.860;2023-04-23T00:54:31;8.30;;;7.70;;
2522;SDS011;1272;53.332;9.860;2023-04-23T00:56:57;8.37;;;7.67;;
2522;SDS011;1272;53.332;9.860;2023-04-23T00:59:27;7.53;;;7.03;;
2522;SDS011;1272;53.332;9.860;2023-04-23T01:01:53;6.27;;;5.77;;
2522;SDS011;1272;53.332;9.860;2023-04-23T01:04:20;7.13;;;6.57;;
2522;SDS011;1272;53.332;9.860;2023-04-23T01:06:48;7.60;;;6.83;;
2522;SDS011;1272;53.332;9.860;2023-04-23T01:09:14;6.67;;;6.20;;
2522;SDS011;1272;53.332;9.860;2023-04-23T01:11:42;7.70;;;6.40;;
2522;SDS011;1272;53.332;9.860;2023-04-23T01:14:08;6.03;;;5.53;;
2522;SDS011;1272;53.332;9.860;2023-04-23T01:16:35;6.43;;;6.03;;
2522;SDS011;1272;53.332;9.860;2023-04-23T01:19:03;8.30;;;7.70;;
2522;SDS011;1272;53.332;9.860;2023-04-23T01:21:32;10.10;;;9.20;;
2522;SDS011;1272;53.332;9.860;2023-04-23T01:24:04;9.60;;;8.70;;
2522;SDS011;1272;53.332;9.860;2023-04-23T01:26:31;9.70;;;8.73;;
2522;SDS011;1272;53.332;9.860;2023-04-23T01:28:58;10.67;;;9.77;;
2522;SDS011;1272;53.332;9.860;2023-04-23T01:31:25;10.33;;;9.40;;
2522;SDS011;1272;53.332;9.860;2023-04-23T01:33:54;9.40;;;8.50;;
2522;SDS011;1272;53.332;9.860;2023-04-23T01:36:23;10.03;;;9.13;;
2522;SDS011;1272;53.332;9.860;2023-04-23T01:38:49;12.00;;;10.80;;
2522;SDS011;1272;53.332;9.860;2023-04-23T01:41:16;10.80;;;9.80;;
2522;SDS011;1272;53.332;9.860;2023-04-23T01:43:42;10.70;;;9.60;;
2522;SDS011;1272;53.332;9.860;2023-04-23T01:46:09;11.83;;;10.70;;
2522;SDS011;1272;53.332;9.860;2023-04-23T01:48:36;12.47;;;11.40;;
2522;SDS011;1272;53.332;9.860;2023-04-23T01:51:02;11.73;;;10.73;;
2522;SDS011;1272;53.332;9.860;2023-04-23T01:53:27;12.17;;;10.97;;
2522;SDS011;1272;53.332;9.860;2023-04-23T01:55:54;11.23;;;10.13;;
2522;SDS011;1272;53.332;9.860;2023-04-23T01:58:21;12.07;;;10.80;;
2522;SDS011;1272;53.332;9.860;2023-04-23T02:00:48;13.30;;;12.03;;
2522;SDS011;1272;53.332;9.860;2023-04-23T02:03:16;13.20;;;12.00;;
2522;SDS011;1272;53.332;9.860;2023-04-23T02:05:42;15.90;;;14.00;;
2522;SDS011;1272;53.332;9.860;2023-04-23T02:08:08;21.13;;;18.93;;
2522;SDS011;1272;53.332;9.860;2023-04-23T02:10:35;18.43;;;16.53;;
2522;SDS011;1272;53.332;9.860;2023-04-23T02:13:01;18.43;;;16.43;;
2522;SDS011;1272;53.332;9.860;2023-04-23T02:15:27;18.57;;;15.60;;
2522;SDS011;1272;53.332;9.860;2023-04-23T02:17:53;18.17;;;16.30;;
2522;SDS011;1272;53.332;9.860;2023-04-23T02:20:19;18.53;;;16.30;;
2522;SDS011;1272;53.332;9.860;2023-04-23T02:22:50;19.90;;;17.73;;
2522;SDS011;1272;53.332;9.860;2023-04-23T02:25:17;20.60;;;18.07;;
2522;SDS011;1272;53.332;9.860;2023-04-23T02:27:43;19.77;;;17.77;;
2522;SDS011;1272;53.332;9.860;2023-04-23T02:30:09;18.87;;;16.97;;
2522;SDS011;1272;53.332;9.860;2023-04-23T02:32:36;19.30;;;16.40;;
2522;SDS011;1272;53.332;9.860;2023-04-23T02:35:02;23.03;;;17.87;;
2522;SDS011;1272;53.332;9.860;2023-04-23T02:37:31;21.77;;;17.30;;
2522;SDS011;1272;53.332;9.860;2023-04-23T02:39:57;19.50;;;16.50;;
2522;SDS011;1272;53.332;9.860;2023-04-23T02:42:23;21.67;;;19.37;;
2522;SDS011;1272;53.332;9.860;2023-04-23T02:44:48;18.53;;;16.43;;
2522;SDS011;1272;53.332;9.860;2023-04-23T02:47:14;21.70;;;19.20;;
2522;SDS011;1272;53.332;9.860;2023-04-23T02:49:40;25.20;;;21.07;;
2522;SDS011;1272;53.332;9.860;2023-04-23T02:52:05;24.10;;;20.67;;
2522;SDS011;1272;53.332;9.860;2023-04-23T02:54:31;23.87;;;19.90;;
2522;SDS011;1272;53.332;9.860;2023-04-23T02:56:57;21.97;;;19.23;;
2522;SDS011;1272;53.332;9.860;2023-04-23T02:59:23;25.30;;;20.87;;
2522;SDS011;1272;53.332;9.860;2023-04-23T03:01:49;24.53;;;20.73;;
2522;SDS011;1272;53.332;9.860;2023-04-23T03:04:15;27.97;;;20.37;;
2522;SDS011;1272;53.332;9.860;2023-04-23T03:06:42;24.60;;;20.73;;
2522;SDS011;1272;53.332;9.860;2023-04-23T03:09:08;27.80;;;23.17;;
2522;SDS011;1272;53.332;9.860;2023-04-23T03:11:33;29.10;;;23.10;;
2522;SDS011;1272;53.332;9.860;2023-04-23T03:13:59;28.37;;;22.93;;
2522;SDS011;1272;53.332;9.860;2023-04-23T03:16:26;25.83;;;21.67;;
2522;SDS011;1272;53.332;9.860;2023-04-23T03:18:52;28.00;;;22.57;;
2522;SDS011;1272;53.332;9.860;2023-04-23T03:21:18;26.40;;;23.50;;
2522;SDS011;1272;53.332;9.860;2023-04-23T03:23:43;27.70;;;23.17;;
2522;SDS011;1272;53.332;9.860;2023-04-23T03:26:09;32.00;;;25.27;;
2522;SDS011;1272;53.332;9.860;2023-04-23T03:28:34;29.30;;;23.83;;
2522;SDS011;1272;53.332;9.860;2023-04-23T03:31:00;27.47;;;22.20;;
2522;SDS011;1272;53.332;9.860;2023-04-23T03:33:26;30.27;;;25.43;;
2522;SDS011;1272;53.332;9.860;2023-04-23T03:35:51;27.67;;;22.33;;
2522;SDS011;1272;53.332;9.860;2023-04-23T03:38:17;28.90;;;24.00;;
2522;SDS011;1272;53.332;9.860;2023-04-23T03:40:43;33.43;;;25.40;;
2522;SDS011;1272;53.332;9.860;2023-04-23T03:43:09;32.73;;;25.93;;
2522;SDS011;1272;53.332;9.860;2023-04-23T03:45:35;25.93;;;21.87;;
2522;SDS011;1272;53.332;9.860;2023-04-23T03:48:00;29.63;;;23.73;;
2522;SDS011;1272;53.332;9.860;2023-04-23T03:50:26;30.00;;;24.40;;
2522;SDS011;1272;53.332;9.860;2023-04-23T03:52:52;29.93;;;25.00;;
2522;SDS011;1272;53.332;9.860;2023-04-23T03:55:17;27.13;;;22.97;;
2522;SDS011;1272;53.332;9.860;2023-04-23T03:57:44;28.90;;;24.77;;
2522;SDS011;1272;53.332;9.860;2023-04-23T04:00:10;30.17;;;24.33;;
2522;SDS011;1272;53.332;9.860;2023-04-23T04:02:37;29.60;;;23.10;;
2522;SDS011;1272;53.332;9.860;2023-04-23T04:05:03;30.03;;;23.10;;
2522;SDS011;1272;53.332;9.860;2023-04-23T04:07:30;28.23;;;22.27;;
2522;SDS011;1272;53.332;9.860;2023-04-23T04:09:56;28.10;;;23.47;;
2522;SDS011;1272;53.332;9.860;2023-04-23T04:12:21;24.50;;;21.37;;
2522;SDS011;1272;53.332;9.860;2023-04-23T04:14:47;27.37;;;21.20;;
2522;SDS011;1272;53.332;9.860;2023-04-23T04:17:13;21.27;;;18.70;;
2522;SDS011;1272;53.332;9.860;2023-04-23T04:19:40;22.93;;;19.50;;
2522;SDS011;1272;53.332;9.860;2023-04-23T04:22:07;18.23;;;16.33;;
2522;SDS011;1272;53.332;9.860;2023-04-23T04:24:33;23.10;;;17.10;;
2522;SDS011;1272;53.332;9.860;2023-04-23T04:26:59;20.77;;;14.93;;
2522;SDS011;1272;53.332;9.860;2023-04-23T04:29:26;20.43;;;15.17;;
2522;SDS011;1272;53.332;9.860;2023-04-23T04:31:55;15.43;;;13.10;;
2522;SDS011;1272;53.332;9.860;2023-04-23T04:34:21;18.33;;;14.10;;
2522;SDS011;1272;53.332;9.860;2023-04-23T04:36:47;17.63;;;13.07;;
2522;SDS011;1272;53.332;9.860;2023-04-23T04:39:13;15.10;;;12.43;;
2522;SDS011;1272;53.332;9.860;2023-04-23T04:41:39;13.67;;;11.23;;
2522;SDS011;1272;53.332;9.860;2023-04-23T04:44:06;13.87;;;11.53;;
2522;SDS011;1272;53.332;9.860;2023-04-23T04:46:32;11.33;;;10.23;;
2522;SDS011;1272;53.332;9.860;2023-04-23T04:49:04;11.53;;;10.17;;
2522;SDS011;1272;53.332;9.860;2023-04-23T04:51:33;11.53;;;9.60;;
2522;SDS011;1272;53.332;9.860;2023-04-23T04:54:00;10.83;;;9.73;;
2522;SDS011;1272;53.332;9.860;2023-04-23T04:56:26;13.57;;;10.50;;
2522;SDS011;1272;53.332;9.860;2023-04-23T04:58:54;13.60;;;10.47;;
2522;SDS011;1272;53.332;9.860;2023-04-23T05:01:20;11.10;;;9.10;;
2522;SDS011;1272;53.332;9.860;2023-04-23T05:03:48;11.57;;;8.63;;
2522;SDS011;1272;53.332;9.860;2023-04-23T05:06:14;9.87;;;8.97;;
2522;SDS011;1272;53.332;9.860;2023-04-23T05:08:40;13.00;;;8.73;;
2522;SDS011;1272;53.332;9.860;2023-04-23T05:11:07;14.00;;;8.43;;
2522;SDS011;1272;53.332;9.860;2023-04-23T05:13:33;8.50;;;7.70;;
2522;SDS011;1272;53.332;9.860;2023-04-23T05:15:59;8.17;;;6.87;;
2522;SDS011;1272;53.332;9.860;2023-04-23T05:18:25;10.80;;;6.63;;
2522;SDS011;1272;53.332;9.860;2023-04-23T05:20:51;7.10;;;6.50;;
2522;SDS011;1272;53.332;9.860;2023-04-23T05:23:17;8.37;;;6.87;;
2522;SDS011;1272;53.332;9.860;2023-04-23T05:25:43;7.00;;;6.23;;
2522;SDS011;1272;53.332;9.860;2023-04-23T05:28:09;6.00;;;5.50;;
2522;SDS011;1272;53.332;9.860;2023-04-23T05:30:34;5.70;;;5.23;;
2522;SDS011;1272;53.332;9.860;2023-04-23T05:33:00;5.77;;;5.27;;
2522;SDS011;1272;53.332;9.860;2023-04-23T05:35:26;6.07;;;5.57;;
2522;SDS011;1272;53.332;9.860;2023-04-23T05:37:51;6.93;;;5.33;;
2522;SDS011;1272;53.332;9.860;2023-04-23T05:40:17;10.53;;;5.77;;
2522;SDS011;1272;53.332;9.860;2023-04-23T05:42:43;6.13;;;5.63;;
2522;SDS011;1272;53.332;9.860;2023-04-23T05:45:08;7.47;;;6.77;;
2522;SDS011;1272;53.332;9.860;2023-04-23T05:47:34;9.90;;;7.13;;
2522;SDS011;1272;53.332;9.860;2023-04-23T05:50:00;7.70;;;6.97;;
2522;SDS011;1272;53.332;9.860;2023-04-23T05:52:26;7.77;;;7.03;;
2522;SDS011;1272;53.332;9.860;2023-04-23T05:54:55;7.63;;;6.90;;
2522;SDS011;1272;53.332;9.860;2023-04-23T05:57:21;9.93;;;7.40;;
2522;SDS011;1272;53.332;9.860;2023-04-23T05:59:46;7.87;;;7.17;;
2522;SDS011;1272;53.332;9.860;2023-04-23T06:02:12;7.37;;;6.63;;
2522;SDS011;1272;53.332;9.860;2023-04-23T06:04:38;7.27;;;6.67;;
2522;SDS011;1272;53.332;9.860;2023-04-23T06:07:04;8.20;;;7.40;;
2522;SDS011;1272;53.332;9.860;2023-04-23T06:09:30;8.93;;;8.13;;
2522;SDS011;1272;53.332;9.860;2023-04-23T06:11:56;10.60;;;7.87;;
2522;SDS011;1272;53.332;9.860;2023-04-23T06:14:22;10.87;;;8.07;;
2522;SDS011;1272;53.332;9.860;2023-04-23T06:16:47;7.70;;;7.07;;
2522;SDS011;1272;53.332;9.860;2023-04-23T06:19:13;8.93;;;7.70;;
2522;SDS011;1272;53.332;9.860;2023-04-23T06:21:39;10.30;;;7.33;;
2522;SDS011;1272;53.332;9.860;2023-04-23T06:24:05;7.33;;;6.20;;
2522;SDS011;1272;53.332;9.860;2023-04-23T06:26:32;6.57;;;5.93;;
2522;SDS011;1272;53.332;9.860;2023-04-23T06:28:57;7.13;;;6.43;;
2522;SDS011;1272;53.332;9.860;2023-04-23T06:31:23;7.37;;;6.67;;
2522;SDS011;1272;53.332;9.860;2023-04-23T06:33:49;6.23;;;5.60;;
2522;SDS011;1272;53.332;9.860;2023-04-23T06:36:15;6.70;;;6.10;;
2522;SDS011;1272;53.332;9.860;2023-04-23T06:38:40;7.00;;;6.30;;
2522;SDS011;1272;53.332;9.860;2023-04-23T06:41:06;7.53;;;6.83;;
2522;SDS011;1272;53.332;9.860;2023-04-23T06:43:32;7.00;;;6.40;;
2522;SDS011;1272;53.332;9.860;2023-04-23T06:45:58;8.17;;;5.93;;
2522;SDS011;1272;53.332;9.860;2023-04-23T06:48:24;8.47;;;7.30;;
2522;SDS011;1272;53.332;9.860;2023-04-23T06:50:50;7.70;;;6.90;;
2522;SDS011;1272;53.332;9.860;2023-04-23T06:53:16;6.73;;;6.23;;
2522;SDS011;1272;53.332;9.860;2023-04-23T06:55:44;9.20;;;7.53;;
2522;SDS011;1272;53.332;9.860;2023-04-23T06:58:09;11.00;;;7.20;;
2522;SDS011;1272;53.332;9.860;2023-04-23T07:00:35;7.20;;;6.50;;
2522;SDS011;1272;53.332;9.860;2023-04-23T07:03:01;8.03;;;7.30;;
2522;SDS011;1272;53.332;9.860;2023-04-23T07:05:27;7.67;;;6.67;;
2522;SDS011;1272;53.332;9.860;2023-04-23T07:07:53;7.30;;;6.70;;
2522;SDS011;1272;53.332;9.860;2023-04-23T07:10:19;8.90;;;6.83;;
2522;SDS011;1272;53.332;9.860;2023-04-23T07:12:44;6.80;;;6.20;;
2522;SDS011;1272;53.332;9.860;2023-04-23T07:15:10;7.70;;;7.00;;
2522;SDS011;1272;53.332;9.860;2023-04-23T07:17:36;6.40;;;5.80;;
2522;SDS011;1272;53.332;9.860;2023-04-23T07:20:02;9.53;;;7.97;;
2522;SDS011;1272;53.332;9.860;2023-04-23T07:22:32;8.73;;;7.80;;
2522;SDS011;1272;53.332;9.860;2023-04-23T07:24:58;8.07;;;7.33;;
2522;SDS011;1272;53.332;9.860;2023-04-23T07:27:28;7.90;;;7.17;;
2522;SDS011;1272;53.332;9.860;2023-04-23T07:29:53;11.87;;;7.43;;
2522;SDS011;1272;53.332;9.860;2023-04-23T07:32:19;7.77;;;6.97;;
2522;SDS011;1272;53.332;9.860;2023-04-23T07:34:47;8.03;;;7.33;;
2522;SDS011;1272;53.332;9.860;2023-04-23T07:37:13;9.23;;;7.43;;
2522;SDS011;1272;53.332;9.860;2023-04-23T07:39:39;10.77;;;8.27;;
2522;SDS011;1272;53.332;9.860;2023-04-23T07:42:07;9.03;;;8.13;;
2522;SDS011;1272;53.332;9.860;2023-04-23T07:44:33;7.70;;;7.00;;
2522;SDS011;1272;53.332;9.860;2023-04-23T07:46:59;9.10;;;8.07;;
2522;SDS011;1272;53.332;9.860;2023-04-23T07:49:24;7.87;;;7.17;;
2522;SDS011;1272;53.332;9.860;2023-04-23T07:51:50;11.60;;;9.10;;
2522;SDS011;1272;53.332;9.860;2023-04-23T07:54:16;10.20;;;8.90;;
2522;SDS011;1272;53.332;9.860;2023-04-23T07:56:41;13.27;;;10.70;;
2522;SDS011;1272;53.332;9.860;2023-04-23T07:59:07;11.07;;;8.53;;
2522;SDS011;1272;53.332;9.860;2023-04-23T08:01:33;10.77;;;8.90;;
2522;SDS011;1272;53.332;9.860;2023-04-23T08:03:59;8.27;;;7.47;;
2522;SDS011;1272;53.332;9.860;2023-04-23T08:06:26;9.13;;;7.43;;
2522;SDS011;1272;53.332;9.860;2023-04-23T08:08:53;8.33;;;7.60;;
2522;SDS011;1272;53.332;9.860;2023-04-23T08:11:20;8.07;;;7.27;;
2522;SDS011;1272;53.332;9.860;2023-04-23T08:13:46;11.50;;;10.23;;
2522;SDS011;1272;53.332;9.860;2023-04-23T08:16:11;13.20;;;9.47;;
2522;SDS011;1272;53.332;9.860;2023-04-23T08:18:37;9.67;;;8.77;;
2522;SDS011;1272;53.332;9.860;2023-04-23T08:21:03;9.40;;;7.90;;
2522;SDS011;1272;53.332;9.860;2023-04-23T08:23:29;9.60;;;8.70;;
2522;SDS011;1272;53.332;9.860;2023-04-23T08:25:54;9.90;;;8.90;;
2522;SDS011;1272;53.332;9.860;2023-04-23T08:28:20;10.20;;;9.10;;
2522;SDS011;1272;53.332;9.860;2023-04-23T08:30:46;8.40;;;7.60;;
2522;SDS011;1272;53.332;9.860;2023-04-23T08:33:11;11.37;;;10.37;;
2522;SDS011;1272;53.332;9.860;2023-04-23T08:35:38;10.67;;;8.73;;
2522;SDS011;1272;53.332;9.860;2023-04-23T08:38:03;12.60;;;10.10;;
2522;SDS011;1272;53.332;9.860;2023-04-23T08:40:30;9.50;;;8.67;;
2522;SDS011;1272;53.332;9.860;2023-04-23T08:42:57;12.57;;;11.23;;
2522;SDS011;1272;53.332;9.860;2023-04-23T08:45:31;12.80;;;10.50;;
2522;SDS011;1272;53.332;9.860;2023-04-23T08:47:58;12.87;;;11.33;;
2522;SDS011;1272;53.332;9.860;2023-04-23T08:50:25;14.93;;;12.07;;
2522;SDS011;1272;53.332;9.860;2023-04-23T08:52:54;16.53;;;13.50;;
2522;SDS011;1272;53.332;9.860;2023-04-23T08:55:21;14.63;;;13.00;;
2522;SDS011;1272;53.332;9.860;2023-04-23T08:57:48;17.03;;;13.07;;
2522;SDS011;1272;53.332;9.860;2023-04-23T09:00:15;13.83;;;12.33;;
2522;SDS011;1272;53.332;9.860;2023-04-23T09:02:47;15.10;;;13.40;;
2522;SDS011;1272;53.332;9.860;2023-04-23T09:05:13;15.10;;;13.70;;
2522;SDS011;1272;53.332;9.860;2023-04-23T09:07:40;14.70;;;13.10;;
2522;SDS011;1272;53.332;9.860;2023-04-23T09:10:07;15.67;;;13.77;;
2522;SDS011;1272;53.332;9.860;2023-04-23T09:12:37;14.07;;;12.57;;
2522;SDS011;1272;53.332;9.860;2023-04-23T09:15:05;15.83;;;14.23;;
2522;SDS011;1272;53.332;9.860;2023-04-23T09:17:35;17.07;;;15.47;;
2522;SDS011;1272;53.332;9.860;2023-04-23T09:20:07;16.17;;;14.07;;
2522;SDS011;1272;53.332;9.860;2023-04-23T09:22:51;15.87;;;14.10;;
2522;SDS011;1272;53.332;9.860;2023-04-23T09:25:18;17.27;;;15.43;;
2522;SDS011;1272;53.332;9.860;2023-04-23T09:27:45;16.17;;;14.53;;
2522;SDS011;1272;53.332;9.860;2023-04-23T09:30:12;16.20;;;13.73;;
2522;SDS011;1272;53.332;9.860;2023-04-23T09:32:40;19.30;;;17.27;;
2522;SDS011;1272;53.332;9.860;2023-04-23T09:35:07;16.37;;;14.67;;
2522;SDS011;1272;53.332;9.860;2023-04-23T09:37:35;17.53;;;15.87;;
2522;SDS011;1272;53.332;9.860;2023-04-23T09:40:04;16.13;;;14.27;;
2522;SDS011;1272;53.332;9.860;2023-04-23T09:42:32;14.63;;;13.33;;
2522;SDS011;1272;53.332;9.860;2023-04-23T09:45:01;14.70;;;13.20;;
2522;SDS011;1272;53.332;9.860;2023-04-23T09:47:39;14.83;;;12.60;;
2522;SDS011;1272;53.332;9.860;2023-04-23T09:50:15;12.20;;;11.00;;
2522;SDS011;1272;53.332;9.860;2023-04-23T09:52:42;10.87;;;9.73;;
2522;SDS011;1272;53.332;9.860;2023-04-23T09:55:07;12.07;;;10.10;;
2522;SDS011;1272;53.332;9.860;2023-04-23T09:57:37;11.33;;;10.27;;
2522;SDS011;1272;53.332;9.860;2023-04-23T10:00:14;11.53;;;10.53;;
2522;SDS011;1272;53.332;9.860;2023-04-23T10:02:46;12.63;;;10.00;;
2522;SDS011;1272;53.332;9.860;2023-04-23T10:05:21;11.23;;;9.97;;
2522;SDS011;1272;53.332;9.860;2023-04-23T10:07:47;12.17;;;10.80;;
2522;SDS011;1272;53.332;9.860;2023-04-23T10:10:14;10.37;;;9.47;;
2522;SDS011;1272;53.332;9.860;2023-04-23T10:12:43;10.10;;;9.20;;
2522;SDS011;1272;53.332;9.860;2023-04-23T10:15:09;7.40;;;6.43;;
2522;SDS011;1272;53.332;9.860;2023-04-23T10:17:37;8.77;;;7.43;;
2522;SDS011;1272;53.332;9.860;2023-04-23T10:20:10;8.33;;;7.60;;
2522;SDS011;1272;53.332;9.860;2023-04-23T10:22:37;10.03;;;9.00;;
2522;SDS011;1272;53.332;9.860;2023-04-23T10:25:07;9.20;;;8.40;;
2522;SDS011;1272;53.332;9.860;2023-04-23T10:27:38;9.77;;;8.87;;
2522;SDS011;1272;53.332;9.860;2023-04-23T10:30:05;9.90;;;8.40;;
2522;SDS011;1272;53.332;9.860;2023-04-23T10:32:33;8.37;;;7.57;;
2522;SDS011;1272;53.332;9.860;2023-04-23T10:34:59;7.60;;;6.90;;
2522;SDS011;1272;53.332;9.860;2023-04-23T10:37:25;9.30;;;8.50;;
2522;SDS011;1272;53.332;9.860;2023-04-23T10:39:53;7.63;;;7.03;;
2522;SDS011;1272;53.332;9.860;2023-04-23T10:42:23;9.90;;;6.70;;
2522;SDS011;1272;53.332;9.860;2023-04-23T10:44:54;6.97;;;6.37;;
2522;SDS011;1272;53.332;9.860;2023-04-23T10:47:22;7.07;;;6.37;;
2522;SDS011;1272;53.332;9.860;2023-04-23T10:49:48;8.63;;;6.97;;
2522;SDS011;1272;53.332;9.860;2023-04-23T10:52:17;6.63;;;5.97;;
2522;SDS011;1272;53.332;9.860;2023-04-23T10:54:46;7.50;;;6.90;;
2522;SDS011;1272;53.332;9.860;2023-04-23T10:57:13;6.93;;;6.33;;
2522;SDS011;1272;53.332;9.860;2023-04-23T10:59:52;7.00;;;6.50;;
2522;SDS011;1272;53.332;9.860;2023-04-23T11:02:21;7.40;;;6.70;;
2522;SDS011;1272;53.332;9.860;2023-04-23T11:04:55;6.47;;;5.97;;
2522;SDS011;1272;53.332;9.860;2023-04-23T11:07:32;5.67;;;5.27;;
2522;SDS011;1272;53.332;9.860;2023-04-23T11:09:58;6.30;;;5.80;;
2522;SDS011;1272;53.332;9.860;2023-04-23T11:14:56;7.90;;;7.30;;
2522;SDS011;1272;53.332;9.860;2023-04-23T11:20:08;5.33;;;4.93;;
2522;SDS011;1272;53.332;9.860;2023-04-23T11:22:44;7.13;;;6.50;;
2522;SDS011;1272;53.332;9.860;2023-04-23T11:25:11;6.47;;;5.87;;
2522;SDS011;1272;53.332;9.860;2023-04-23T11:27:47;7.17;;;6.57;;
2522;SDS011;1272;53.332;9.860;2023-04-23T11:30:15;5.27;;;4.90;;
2522;SDS011;1272;53.332;9.860;2023-04-23T11:32:48;6.30;;;5.80;;
2522;SDS011;1272;53.332;9.860;2023-04-23T11:35:16;6.50;;;5.80;;
2522;SDS011;1272;53.332;9.860;2023-04-23T11:37:43;5.93;;;5.53;;
2522;SDS011;1272;53.332;9.860;2023-04-23T11:40:10;6.13;;;5.63;;
2522;SDS011;1272;53.332;9.860;2023-04-23T11:42:42;6.00;;;5.60;;
2522;SDS011;1272;53.332;9.860;2023-04-23T11:45:24;4.90;;;4.60;;
2522;SDS011;1272;53.332;9.860;2023-04-23T11:47:55;5.33;;;4.83;;
2522;SDS011;1272;53.332;9.860;2023-04-23T11:50:23;4.40;;;4.10;;
2522;SDS011;1272;53.332;9.860;2023-04-23T11:52:57;4.80;;;4.30;;
2522;SDS011;1272;53.332;9.860;2023-04-23T11:55:29;5.20;;;4.70;;
2522;SDS011;1272;53.332;9.860;2023-04-23T11:57:55;6.00;;;5.57;;
2522;SDS011;1272;53.332;9.860;2023-04-23T12:00:23;5.13;;;4.73;;
2522;SDS011;1272;53.332;9.860;2023-04-23T12:05:49;3.97;;;3.77;;
2522;SDS011;1272;53.332;9.860;2023-04-23T12:08:09;4.73;;;4.43;;
2522;SDS011;1272;53.332;9.860;2023-04-23T12:10:54;4.20;;;4.00;;
2522;SDS011;1272;53.332;9.860;2023-04-23T12:13:24;3.90;;;3.70;;
2522;SDS011;1272;53.332;9.860;2023-04-23T12:15:53;4.13;;;3.57;;
2522;SDS011;1272;53.332;9.860;2023-04-23T12:18:27;4.50;;;4.20;;
2522;SDS011;1272;53.332;9.860;2023-04-23T12:20:53;6.23;;;5.70;;
2522;SDS011;1272;53.332;9.860;2023-04-23T12:23:26;4.70;;;4.07;;
2522;SDS011;1272;53.332;9.860;2023-04-23T12:25:54;5.20;;;4.80;;
2522;SDS011;1272;53.332;9.860;2023-04-23T12:28:24;4.73;;;4.40;;
2522;SDS011;1272;53.332;9.860;2023-04-23T12:30:50;4.40;;;3.73;;
2522;SDS011;1272;53.332;9.860;2023-04-23T12:33:16;4.30;;;3.90;;
2522;SDS011;1272;53.332;9.860;2023-04-23T12:35:49;7.20;;;4.13;;
2522;SDS011;1272;53.332;9.860;2023-04-23T12:38:25;3.80;;;3.50;;
2522;SDS011;1272;53.332;9.860;2023-04-23T12:40:56;3.63;;;3.43;;
2522;SDS011;1272;53.332;9.860;2023-04-23T12:43:23;3.50;;;3.20;;
2522;SDS011;1272;53.332;9.860;2023-04-23T12:45:49;3.53;;;3.33;;
2522;SDS011;1272;53.332;9.860;2023-04-23T12:48:16;5.83;;;3.73;;
2522;SDS011;1272;53.332;9.860;2023-04-23T12:50:43;3.80;;;3.30;;
2522;SDS011;1272;53.332;9.860;2023-04-23T12:53:10;4.17;;;3.87;;
2522;SDS011;1272;53.332;9.860;2023-04-23T12:55:36;3.60;;;3.40;;
2522;SDS011;1272;53.332;9.860;2023-04-23T12:58:03;4.10;;;3.80;;
2522;SDS011;1272;53.332;9.860;2023-04-23T13:00:29;3.87;;;3.67;;
2522;SDS011;1272;53.332;9.860;2023-04-23T13:02:55;5.73;;;5.00;;
2522;SDS011;1272;53.332;9.860;2023-04-23T13:05:21;3.73;;;3.40;;
2522;SDS011;1272;53.332;9.860;2023-04-23T13:07:47;3.60;;;3.30;;
2522;SDS011;1272;53.332;9.860;2023-04-23T13:10:12;4.00;;;3.70;;
2522;SDS011;1272;53.332;9.860;2023-04-23T13:12:38;4.00;;;3.73;;
2522;SDS011;1272;53.332;9.860;2023-04-23T13:15:08;4.80;;;3.63;;
2522;SDS011;1272;53.332;9.860;2023-04-23T13:17:35;5.70;;;4.00;;
2522;SDS011;1272;53.332;9.860;2023-04-23T13:20:01;3.60;;;3.27;;
2522;SDS011;1272;53.332;9.860;2023-04-23T13:22:28;8.20;;;4.27;;
2522;SDS011;1272;53.332;9.860;2023-04-23T13:24:54;3.43;;;3.23;;
2522;SDS011;1272;53.332;9.860;2023-04-23T13:27:23;3.93;;;3.57;;
2522;SDS011;1272;53.332;9.860;2023-04-23T13:29:50;4.40;;;3.83;;
2522;SDS011;1272;53.332;9.860;2023-04-23T13:32:15;5.90;;;3.33;;
2522;SDS011;1272;53.332;9.860;2023-04-23T13:34:41;4.23;;;3.60;;
2522;SDS011;1272;53.332;9.860;2023-04-23T13:37:07;3.80;;;3.50;;
2522;SDS011;1272;53.332;9.860;2023-04-23T13:39:33;3.53;;;3.00;;
2522;SDS011;1272;53.332;9.860;2023-04-23T13:42:00;3.47;;;3.27;;
2522;SDS011;1272;53.332;9.860;2023-04-23T13:44:29;3.83;;;3.60;;
2522;SDS011;1272;53.332;9.860;2023-04-23T13:46:57;3.03;;;2.83;;
2522;SDS011;1272;53.332;9.860;2023-04-23T13:49:26;3.47;;;3.27;;
2522;SDS011;1272;53.332;9.860;2023-04-23T13:51:52;3.63;;;3.33;;
2522;SDS011;1272;53.332;9.860;2023-04-23T13:54:22;3.43;;;3.20;;
2522;SDS011;1272;53.332;9.860;2023-04-23T13:56:51;3.73;;;3.53;;
2522;SDS011;1272;53.332;9.860;2023-04-23T13:59:20;12.73;;;4.47;;
2522;SDS011;1272;53.332;9.860;2023-04-23T14:01:46;4.43;;;4.03;;
2522;SDS011;1272;53.332;9.860;2023-04-23T14:04:15;4.57;;;3.80;;
2522;SDS011;1272;53.332;9.860;2023-04-23T14:06:42;3.60;;;3.40;;
2522;SDS011;1272;53.332;9.860;2023-04-23T14:09:07;3.03;;;2.83;;
2522;SDS011;1272;53.332;9.860;2023-04-23T14:11:34;3.47;;;3.20;;
2522;SDS011;1272;53.332;9.860;2023-04-23T14:14:00;3.30;;;3.10;;
2522;SDS011;1272;53.332;9.860;2023-04-23T14:16:26;2.47;;;2.30;;
2522;SDS011;1272;53.332;9.860;2023-04-23T14:18:52;2.77;;;2.57;;
2522;SDS011;1272;53.332;9.860;2023-04-23T14:21:17;2.90;;;2.70;;
2522;SDS011;1272;53.332;9.860;2023-04-23T14:23:44;3.17;;;2.83;;
2522;SDS011;1272;53.332;9.860;2023-04-23T14:28:55;4.47;;;3.13;;
2522;SDS011;1272;53.332;9.860;2023-04-23T14:31:25;3.00;;;2.80;;
2522;SDS011;1272;53.332;9.860;2023-04-23T14:33:51;3.77;;;3.47;;
2522;SDS011;1272;53.332;9.860;2023-04-23T14:36:17;3.50;;;3.20;;
2522;SDS011;1272;53.332;9.860;2023-04-23T14:38:43;4.30;;;3.43;;
2522;SDS011;1272;53.332;9.860;2023-04-23T14:41:09;6.67;;;3.60;;
2522;SDS011;1272;53.332;9.860;2023-04-23T14:43:34;4.40;;;4.00;;
2522;SDS011;1272;53.332;9.860;2023-04-23T14:46:01;4.57;;;4.03;;
2522;SDS011;1272;53.332;9.860;2023-04-23T14:48:27;3.47;;;3.27;;
2522;SDS011;1272;53.332;9.860;2023-04-23T14:50:53;4.20;;;3.50;;
2522;SDS011;1272;53.332;9.860;2023-04-23T14:53:18;2.93;;;2.73;;
2522;SDS011;1272;53.332;9.860;2023-04-23T14:55:45;4.47;;;2.93;;
2522;SDS011;1272;53.332;9.860;2023-04-23T14:58:11;2.80;;;2.60;;
2522;SDS011;1272;53.332;9.860;2023-04-23T15:00:37;3.53;;;3.33;;
2522;SDS011;1272;53.332;9.860;2023-04-23T15:03:02;3.27;;;3.17;;
2522;SDS011;1272;53.332;9.860;2023-04-23T15:05:34;2.97;;;2.77;;
2522;SDS011;1272;53.332;9.860;2023-04-23T15:08:01;2.77;;;2.57;;
2522;SDS011;1272;53.332;9.860;2023-04-23T15:10:26;4.90;;;2.93;;
2522;SDS011;1272;53.332;9.860;2023-04-23T15:12:53;2.93;;;2.70;;
2522;SDS011;1272;53.332;9.860;2023-04-23T15:18:15;2.57;;;2.40;;